Time;durP1;ratioP1;P1;durP2;ratioP2;P2;SDS_P1;SDS_P2;PMS_P1;PMS_P2;Temp;Humidity;BMP_temperature;BMP_pressure;BME280_temperature;BME280_humidity;BME280_pressure;Samples;Min_cycle;Max_cycle;Signal;HPM_P1;HPM_P2
2023/04/17 00:00:15;;;;;;;70.22;30.92;;;8.50;99.90;;;;;;5042253;28;20467;-88
2023/04/17 00:02:41;;;;;;;78.63;32.80;;;8.50;99.90;;;;;;5027644;28;21159;-88
2023/04/17 00:05:07;;;;;;;62.97;30.23;;;8.50;99.90;;;;;;5024400;28;20531;-87
2023/04/17 00:07:40;;;;;;;63.80;30.50;;;8.50;99.90;;;;;;5025101;28;20041;-85
2023/04/17 00:10:07;;;;;;;61.45;30.02;;;8.50;99.90;;;;;;5040328;28;20071;-87
2023/04/17 00:12:34;;;;;;;61.95;31.00;;;8.50;99.90;;;;;;5041786;28;20072;-87
2023/04/17 00:14:59;;;;;;;65.43;30.15;;;8.50;99.90;;;;;;5058103;28;20079;-87
2023/04/17 00:17:25;;;;;;;72.10;33.03;;;8.50;99.90;;;;;;5026981;28;20072;-86
2023/04/17 00:19:51;;;;;;;73.85;33.55;;;8.50;99.90;;;;;;5041695;28;20098;-87
2023/04/17 00:22:17;;;;;;;73.63;32.78;;;8.50;99.90;;;;;;5025347;28;20515;-87
2023/04/17 00:24:43;;;;;;;71.07;31.77;;;8.50;99.90;;;;;;5056957;28;20072;-87
2023/04/17 00:27:08;;;;;;;69.15;32.97;;;8.50;99.90;;;;;;5041881;28;20047;-87
2023/04/17 00:29:36;;;;;;;72.18;33.97;;;8.50;99.90;;;;;;5040643;28;20041;-88
2023/04/17 00:32:02;;;;;;;73.80;32.85;;;8.50;99.90;;;;;;5026059;28;20037;-88
2023/04/17 00:34:28;;;;;;;74.85;34.00;;;8.50;99.90;;;;;;5040238;28;20036;-87
2023/04/17 00:36:53;;;;;;;73.20;34.00;;;8.50;99.90;;;;;;5056582;28;20036;-88
2023/04/17 00:39:19;;;;;;;70.45;32.95;;;8.50;99.90;;;;;;5023665;28;20049;-87
2023/04/17 00:41:45;;;;;;;73.88;32.67;;;8.50;99.90;;;;;;5073656;28;20487;-87
2023/04/17 00:44:11;;;;;;;78.75;32.70;;;8.60;99.90;;;;;;5023405;28;20424;-87
2023/04/17 00:46:36;;;;;;;80.63;35.80;;;8.60;99.90;;;;;;5040571;28;20505;-88
2023/04/17 00:49:03;;;;;;;77.20;34.00;;;8.50;99.90;;;;;;5056307;28;20040;-87
2023/04/17 00:51:30;;;;;;;82.78;36.65;;;8.50;99.90;;;;;;5024715;28;20503;-88
2023/04/17 00:53:57;;;;;;;83.13;34.10;;;8.50;99.90;;;;;;5023006;28;20424;-87
2023/04/17 00:56:27;;;;;;;80.45;34.90;;;8.50;99.90;;;;;;5024767;28;20037;-88
2023/04/17 00:58:54;;;;;;;81.35;35.05;;;8.50;99.90;;;;;;5041529;28;20048;-87
2023/04/17 01:01:21;;;;;;;79.90;35.60;;;8.50;99.90;;;;;;5053299;28;20041;-87
2023/04/17 01:03:48;;;;;;;78.85;35.03;;;8.50;99.90;;;;;;5026848;28;20432;-87
2023/04/17 01:06:14;;;;;;;83.80;35.97;;;8.50;99.90;;;;;;5055492;28;20033;-87
2023/04/17 01:08:42;;;;;;;75.57;33.72;;;8.50;99.90;;;;;;5056226;28;20052;-88
2023/04/17 01:11:09;;;;;;;78.70;36.35;;;8.50;99.90;;;;;;5039587;28;20120;-88
2023/04/17 01:13:46;;;;;;;79.45;34.63;;;8.50;99.90;;;;;;5042727;28;20045;-88
2023/04/17 01:16:12;;;;;;;81.63;35.20;;;8.50;99.90;;;;;;5039231;28;20041;-87
2023/04/17 01:18:38;;;;;;;80.68;34.67;;;8.50;99.90;;;;;;5041344;28;20056;-87
2023/04/17 01:21:04;;;;;;;80.72;35.28;;;8.50;99.90;;;;;;5056307;28;20076;-87
2023/04/17 01:23:47;;;;;;;80.97;36.08;;;8.50;99.90;;;;;;5041879;28;20163;-87
2023/04/17 01:26:23;;;;;;;84.05;35.13;;;8.50;99.90;;;;;;5040128;28;20531;-87
2023/04/17 01:28:50;;;;;;;80.40;34.38;;;8.50;99.90;;;;;;5025689;28;20029;-88
2023/04/17 01:31:16;;;;;;;83.18;35.08;;;8.40;99.90;;;;;;5021889;28;20101;-87
2023/04/17 01:33:41;;;;;;;92.07;35.97;;;8.50;99.90;;;;;;5024009;28;20072;-87
2023/04/17 01:36:10;;;;;;;92.05;34.92;;;8.50;99.90;;;;;;5040495;28;20037;-88
2023/04/17 01:38:36;;;;;;;94.15;35.53;;;8.40;99.90;;;;;;5058548;28;20061;-87
2023/04/17 01:41:08;;;;;;;84.45;35.50;;;8.40;99.90;;;;;;5023947;28;20049;-87
2023/04/17 01:43:40;;;;;;;93.53;36.13;;;8.50;99.90;;;;;;5040279;28;20546;-87
2023/04/17 01:46:06;;;;;;;96.15;37.10;;;8.40;99.90;;;;;;5039531;28;20032;-88
2023/04/17 01:48:32;;;;;;;94.60;37.70;;;8.40;99.90;;;;;;5039682;28;20036;-87
2023/04/17 01:50:58;;;;;;;92.65;36.55;;;8.50;99.90;;;;;;5024040;28;20115;-88
2023/04/17 01:53:25;;;;;;;84.53;35.95;;;8.50;99.90;;;;;;5056703;28;20124;-88
2023/04/17 01:55:50;;;;;;;91.68;36.25;;;8.50;99.90;;;;;;5023276;28;20140;-87
2023/04/17 01:58:16;;;;;;;105.70;35.67;;;8.50;99.90;;;;;;5023807;28;20540;-87
2023/04/17 02:00:44;;;;;;;100.45;37.78;;;8.50;99.90;;;;;;5023431;28;20054;-86
2023/04/17 02:03:10;;;;;;;111.57;37.22;;;8.50;99.90;;;;;;5040003;28;20110;-87
2023/04/17 02:05:36;;;;;;;104.25;36.05;;;8.50;99.90;;;;;;5023274;28;20441;-86
2023/04/17 02:08:01;;;;;;;110.50;37.97;;;8.50;99.90;;;;;;5056437;28;20124;-88
2023/04/17 02:10:27;;;;;;;105.90;36.45;;;8.50;99.90;;;;;;5039551;28;20083;-87
2023/04/17 02:12:53;;;;;;;98.95;34.83;;;8.50;99.90;;;;;;5024894;28;20037;-87
2023/04/17 02:15:18;;;;;;;105.13;37.03;;;8.50;99.90;;;;;;5025529;28;20041;-88
2023/04/17 02:17:44;;;;;;;102.13;35.40;;;8.50;99.90;;;;;;5025904;28;20052;-86
2023/04/17 02:20:10;;;;;;;95.72;35.60;;;8.50;99.90;;;;;;5039130;28;20041;-88
2023/04/17 02:22:36;;;;;;;95.50;36.03;;;8.50;99.90;;;;;;5024842;28;20045;-88
2023/04/17 02:25:02;;;;;;;98.32;36.95;;;8.50;99.90;;;;;;5036235;28;20052;-87
2023/04/17 02:27:28;;;;;;;94.93;35.88;;;8.60;99.90;;;;;;5038456;28;20044;-86
2023/04/17 02:29:54;;;;;;;98.15;35.65;;;8.60;99.90;;;;;;5021935;28;20183;-88
2023/04/17 02:32:20;;;;;;;106.13;37.47;;;8.60;99.90;;;;;;5023751;28;20033;-88
2023/04/17 02:34:46;;;;;;;121.13;38.70;;;8.60;99.90;;;;;;5024570;28;20542;-87
2023/04/17 02:37:12;;;;;;;110.28;37.47;;;8.60;99.90;;;;;;5039213;28;20044;-87
2023/04/17 02:39:38;;;;;;;115.57;36.90;;;8.60;99.90;;;;;;5054489;28;20524;-88
2023/04/17 02:42:04;;;;;;;108.40;39.25;;;8.60;99.90;;;;;;5038958;28;20409;-87
2023/04/17 02:44:29;;;;;;;109.82;35.45;;;8.50;99.90;;;;;;5023219;28;20048;-87
2023/04/17 02:46:55;;;;;;;122.35;37.90;;;8.50;99.90;;;;;;5022426;28;20041;-88
2023/04/17 02:49:21;;;;;;;114.53;34.40;;;8.50;99.90;;;;;;5038864;28;20053;-87
2023/04/17 02:51:46;;;;;;;108.28;34.72;;;8.50;99.90;;;;;;5022759;28;20079;-87
2023/04/17 02:54:12;;;;;;;100.60;34.95;;;8.50;99.90;;;;;;5055676;28;20109;-87
2023/04/17 02:56:38;;;;;;;123.97;36.50;;;8.50;99.90;;;;;;5026297;28;20045;-87
2023/04/17 02:59:06;;;;;;;96.25;34.10;;;8.50;99.90;;;;;;5040019;28;20071;-88
2023/04/17 03:01:32;;;;;;;109.38;33.95;;;8.50;99.90;;;;;;5044159;28;20740;-87
2023/04/17 03:03:58;;;;;;;95.10;31.85;;;8.50;99.90;;;;;;5043921;28;20048;-87
2023/04/17 03:06:25;;;;;;;97.60;32.45;;;8.40;99.90;;;;;;5042469;28;20029;-87
2023/04/17 03:12:32;;;;;;;86.07;29.55;;;8.40;99.90;;;;;;5089698;23;20079;-90
2023/04/17 03:14:57;;;;;;;82.65;29.98;;;8.50;99.90;;;;;;5023120;28;20033;-88
2023/04/17 03:17:23;;;;;;;97.82;32.88;;;8.40;99.90;;;;;;5025516;28;20132;-90
2023/04/17 03:19:48;;;;;;;92.55;33.17;;;8.50;99.90;;;;;;5021454;28;20049;-90
2023/04/17 03:22:14;;;;;;;94.28;32.70;;;8.50;99.90;;;;;;5037905;28;20088;-91
2023/04/17 03:24:40;;;;;;;92.30;33.60;;;8.50;99.90;;;;;;5020370;28;20040;-91
2023/04/17 03:27:06;;;;;;;88.85;32.92;;;8.50;99.90;;;;;;5038670;28;20115;-90
2023/04/17 03:29:31;;;;;;;100.25;33.90;;;8.50;99.90;;;;;;5023003;28;20463;-92
2023/04/17 03:31:57;;;;;;;87.22;32.75;;;8.50;99.90;;;;;;5024989;28;20087;-90
2023/04/17 03:34:23;;;;;;;85.18;32.60;;;8.50;99.90;;;;;;5022595;28;20504;-92
2023/04/17 03:36:48;;;;;;;98.05;32.17;;;8.50;99.90;;;;;;5057138;28;20408;-91
2023/04/17 03:39:14;;;;;;;83.13;30.05;;;8.50;99.90;;;;;;5025641;28;20049;-90
2023/04/17 03:41:40;;;;;;;115.55;32.95;;;8.50;99.90;;;;;;5039850;28;20116;-91
2023/04/17 03:44:07;;;;;;;107.82;34.35;;;8.60;99.90;;;;;;5021552;28;20037;-91
2023/04/17 03:46:37;;;;;;;115.93;32.70;;;8.50;99.90;;;;;;5040099;28;20967;-90
2023/04/17 03:49:02;;;;;;;108.82;32.83;;;8.50;99.90;;;;;;5025546;28;20043;-90
2023/04/17 03:51:28;;;;;;;136.02;35.55;;;8.60;99.90;;;;;;5038579;28;20029;-89
2023/04/17 03:53:53;;;;;;;137.55;34.83;;;8.50;99.90;;;;;;5036042;28;20046;-90
2023/04/17 03:56:20;;;;;;;152.20;35.30;;;8.60;99.90;;;;;;5036086;28;20314;-91
2023/04/17 03:58:46;;;;;;;94.55;31.48;;;8.60;99.90;;;;;;5041368;28;20142;-91
2023/04/17 04:01:13;;;;;;;121.78;35.22;;;8.60;99.90;;;;;;5037188;28;20030;-90
2023/04/17 04:03:39;;;;;;;97.40;33.45;;;8.60;99.90;;;;;;5040261;28;20040;-90
2023/04/17 04:06:06;;;;;;;91.93;34.15;;;8.50;99.90;;;;;;5034976;28;20033;-90
2023/04/17 04:08:32;;;;;;;83.70;32.03;;;8.50;99.90;;;;;;5032415;28;20561;-91
2023/04/17 04:10:59;;;;;;;89.03;32.28;;;8.50;99.90;;;;;;5033065;28;20195;-91
2023/04/17 04:13:25;;;;;;;107.80;34.33;;;8.40;99.90;;;;;;5027642;28;20060;-90
2023/04/17 04:15:51;;;;;;;102.53;34.05;;;8.40;99.90;;;;;;5016204;28;20084;-91
2023/04/17 04:18:16;;;;;;;113.05;33.10;;;8.40;99.90;;;;;;5036913;28;20458;-89
2023/04/17 04:20:42;;;;;;;126.90;33.58;;;8.40;99.90;;;;;;5036991;28;20045;-90
2023/04/17 04:23:08;;;;;;;144.05;36.72;;;8.40;99.90;;;;;;5023841;28;20072;-90
2023/04/17 04:25:35;;;;;;;206.43;41.15;;;8.40;99.90;;;;;;5019010;28;20155;-90
2023/04/17 04:28:01;;;;;;;234.25;38.75;;;8.30;99.90;;;;;;5018540;28;20044;-91
2023/04/17 04:30:34;;;;;;;132.68;35.28;;;8.40;99.90;;;;;;5034790;28;20059;-90
2023/04/17 04:33:01;;;;;;;447.30;49.90;;;8.40;99.90;;;;;;5021404;28;20196;-90
2023/04/17 04:35:29;;;;;;;328.45;43.58;;;8.30;99.90;;;;;;5036372;28;20041;-90
2023/04/17 04:38:01;;;;;;;349.90;47.20;;;8.30;99.90;;;;;;5035781;28;20076;-90
2023/04/17 04:40:34;;;;;;;363.65;48.35;;;8.30;99.90;;;;;;5020572;28;20477;-91
2023/04/17 04:43:00;;;;;;;332.73;45.22;;;8.30;99.90;;;;;;5018551;28;20040;-90
2023/04/17 04:45:26;;;;;;;353.08;45.08;;;8.30;99.90;;;;;;5035261;28;20044;-91
2023/04/17 04:47:54;;;;;;;365.27;44.65;;;8.30;99.90;;;;;;5034364;28;20047;-90
2023/04/17 04:50:20;;;;;;;221.60;38.42;;;8.30;99.90;;;;;;5021019;28;20073;-91
2023/04/17 04:52:46;;;;;;;328.17;43.45;;;8.40;99.90;;;;;;5022982;28;20088;-90
2023/04/17 04:55:13;;;;;;;459.85;50.58;;;8.30;99.90;;;;;;5022206;28;20121;-91
2023/04/17 04:57:38;;;;;;;361.65;46.42;;;8.40;99.90;;;;;;5035804;28;20558;-90
2023/04/17 05:00:05;;;;;;;346.13;48.67;;;8.30;99.90;;;;;;5023192;28;20080;-90
2023/04/17 05:02:34;;;;;;;269.00;43.22;;;8.40;99.90;;;;;;5024570;28;20074;-91
2023/04/17 05:05:00;;;;;;;173.63;34.95;;;8.30;99.90;;;;;;5037407;28;20081;-91
2023/04/17 05:07:26;;;;;;;221.63;37.83;;;8.40;99.90;;;;;;5035649;28;20076;-90
2023/04/17 05:09:51;;;;;;;267.05;41.72;;;8.30;99.90;;;;;;5034136;28;20358;-91
2023/04/17 05:12:17;;;;;;;297.98;42.53;;;8.40;99.90;;;;;;5020724;28;20156;-90
2023/04/17 05:14:42;;;;;;;384.75;45.45;;;8.20;99.90;;;;;;5018290;28;20495;-90
2023/04/17 05:17:08;;;;;;;315.73;42.15;;;8.30;99.90;;;;;;5018389;28;20044;-91
2023/04/17 05:19:34;;;;;;;381.92;46.00;;;8.30;99.90;;;;;;5025285;28;20073;-90
2023/04/17 05:22:02;;;;;;;205.73;36.78;;;8.30;99.90;;;;;;5019251;28;20122;-91
2023/04/17 05:24:28;;;;;;;342.20;43.92;;;8.40;99.90;;;;;;5021315;28;20035;-90
2023/04/17 05:26:53;;;;;;;332.25;43.20;;;8.40;99.90;;;;;;5023216;28;20350;-91
2023/04/17 05:29:19;;;;;;;263.95;42.95;;;8.40;99.90;;;;;;5034232;28;20041;-92
2023/04/17 05:31:45;;;;;;;121.25;33.10;;;8.50;99.90;;;;;;5022202;28;20377;-90
2023/04/17 05:34:11;;;;;;;168.02;38.58;;;8.70;99.90;;;;;;5037878;28;20150;-91
2023/04/17 05:36:36;;;;;;;133.13;37.22;;;8.60;99.90;;;;;;5021636;28;20137;-91
2023/04/17 05:39:02;;;;;;;161.82;38.22;;;8.70;99.90;;;;;;5021059;28;20052;-91
2023/04/17 05:41:29;;;;;;;258.83;45.95;;;8.80;99.90;;;;;;5036865;28;20508;-90
2023/04/17 05:43:55;;;;;;;93.43;33.72;;;8.70;99.90;;;;;;5034450;28;20059;-90
2023/04/17 05:46:21;;;;;;;87.47;32.40;;;8.80;99.90;;;;;;5055652;28;20577;-90
2023/04/17 05:48:46;;;;;;;144.05;36.30;;;8.80;99.90;;;;;;5023068;28;20047;-91
2023/04/17 05:51:12;;;;;;;145.63;40.22;;;8.80;99.90;;;;;;5018923;28;20454;-91
2023/04/17 05:53:38;;;;;;;132.38;37.65;;;8.70;99.90;;;;;;5017910;28;20071;-90
2023/04/17 05:56:04;;;;;;;139.20;39.30;;;8.80;99.90;;;;;;5020422;28;20045;-91
2023/04/17 05:58:30;;;;;;;105.75;33.15;;;8.80;99.90;;;;;;5023346;28;20047;-91
2023/04/17 06:00:59;;;;;;;134.30;35.95;;;8.90;99.90;;;;;;5038511;28;20480;-92
2023/04/17 06:03:25;;;;;;;157.57;40.10;;;8.90;99.90;;;;;;5021477;28;20037;-91
2023/04/17 06:05:51;;;;;;;146.30;39.72;;;9.00;99.90;;;;;;5020306;28;20497;-90
2023/04/17 06:08:16;;;;;;;172.02;41.70;;;9.00;99.90;;;;;;5021290;28;20055;-91
2023/04/17 06:10:44;;;;;;;133.15;38.05;;;8.90;99.90;;;;;;5019280;28;20041;-91
2023/04/17 06:13:10;;;;;;;134.57;39.47;;;8.90;99.90;;;;;;5022519;28;20057;-90
2023/04/17 06:15:38;;;;;;;143.73;39.70;;;9.00;99.90;;;;;;5018908;28;20055;-91
2023/04/17 06:18:04;;;;;;;127.50;37.38;;;9.00;99.90;;;;;;5035844;28;20423;-91
2023/04/17 06:20:30;;;;;;;90.53;35.00;;;9.00;99.90;;;;;;5020993;28;20041;-90
2023/04/17 06:22:55;;;;;;;99.07;36.10;;;9.20;99.90;;;;;;5035014;28;20103;-92
2023/04/17 06:25:21;;;;;;;88.45;34.65;;;9.20;99.90;;;;;;5019065;28;20544;-90
2023/04/17 06:27:47;;;;;;;87.20;35.85;;;9.30;99.90;;;;;;5038493;28;20037;-91
2023/04/17 06:30:13;;;;;;;97.63;36.28;;;9.20;99.90;;;;;;5020412;28;20083;-90
2023/04/17 06:32:42;;;;;;;79.28;32.78;;;9.20;99.90;;;;;;5032897;28;20479;-90
2023/04/17 06:35:10;;;;;;;85.47;33.75;;;9.40;99.90;;;;;;5031061;28;20139;-90
2023/04/17 06:37:35;;;;;;;88.38;34.05;;;9.40;99.90;;;;;;5020177;28;20117;-90
2023/04/17 06:40:01;;;;;;;93.50;35.08;;;9.30;99.90;;;;;;5035827;28;20124;-90
2023/04/17 06:42:27;;;;;;;88.45;35.22;;;9.30;99.90;;;;;;5040687;28;20085;-91
2023/04/17 06:44:53;;;;;;;87.53;35.33;;;9.30;99.90;;;;;;5024520;28;20128;-91
2023/04/17 06:47:19;;;;;;;79.40;33.70;;;9.30;99.90;;;;;;5021991;28;20033;-91
2023/04/17 06:49:44;;;;;;;76.38;33.22;;;9.40;99.90;;;;;;5022950;28;20044;-91
2023/04/17 06:52:10;;;;;;;81.72;35.17;;;9.50;99.90;;;;;;5043334;28;20111;-90
2023/04/17 06:54:37;;;;;;;79.32;35.60;;;9.50;99.90;;;;;;5026271;28;20206;-91
2023/04/17 06:57:05;;;;;;;62.10;32.33;;;9.50;99.90;;;;;;5025517;28;20053;-90
2023/04/17 06:59:31;;;;;;;68.80;32.40;;;9.70;99.90;;;;;;5024671;28;20032;-91
2023/04/17 07:01:57;;;;;;;69.30;32.17;;;9.70;99.90;;;;;;5025669;28;20064;-90
2023/04/17 07:04:23;;;;;;;61.85;30.45;;;9.80;99.90;;;;;;5024766;28;20041;-90
2023/04/17 07:06:48;;;;;;;65.28;31.08;;;9.90;99.90;;;;;;5024632;28;20329;-91
2023/04/17 07:09:14;;;;;;;60.65;30.70;;;10.00;99.90;;;;;;5023245;28;20091;-90
2023/04/17 07:11:40;;;;;;;56.47;31.67;;;10.00;99.90;;;;;;5039346;28;20490;-89
2023/04/17 07:14:05;;;;;;;51.47;29.98;;;10.00;99.90;;;;;;5030216;28;20106;-92
2023/04/17 07:16:31;;;;;;;51.15;28.58;;;10.10;99.90;;;;;;5042377;28;20059;-91
2023/04/17 07:18:57;;;;;;;44.70;27.50;;;10.30;99.90;;;;;;5021877;28;20102;-91
2023/04/17 07:21:22;;;;;;;48.65;28.58;;;10.10;99.90;;;;;;5037565;28;20048;-90
2023/04/17 07:23:48;;;;;;;43.38;27.52;;;10.20;99.90;;;;;;5020935;28;20038;-90
2023/04/17 07:26:14;;;;;;;41.67;25.67;;;10.40;99.90;;;;;;5039036;28;20496;-90
2023/04/17 07:28:39;;;;;;;39.88;25.23;;;10.50;99.90;;;;;;5035788;28;20086;-91
2023/04/17 07:31:07;;;;;;;42.50;26.52;;;10.30;99.90;;;;;;5037921;28;20041;-91
2023/04/17 07:33:37;;;;;;;37.40;25.02;;;10.50;99.90;;;;;;5023283;28;20087;-91
2023/04/17 07:36:04;;;;;;;40.97;25.42;;;10.20;99.90;;;;;;5024926;28;20037;-89
2023/04/17 07:38:33;;;;;;;36.78;24.40;;;10.20;99.90;;;;;;5022794;28;20394;-90
2023/04/17 07:40:59;;;;;;;38.85;25.25;;;10.30;99.90;;;;;;5041554;28;20033;-90
2023/04/17 07:43:28;;;;;;;40.92;25.15;;;10.20;99.90;;;;;;5037681;28;20064;-90
2023/04/17 07:45:55;;;;;;;37.47;25.85;;;10.20;99.90;;;;;;5019965;28;20132;-90
2023/04/17 07:48:21;;;;;;;38.97;25.98;;;10.00;99.90;;;;;;5044756;28;20032;-90
2023/04/17 07:50:50;;;;;;;35.05;25.50;;;10.10;99.90;;;;;;5022345;28;20044;-90
2023/04/17 07:53:21;;;;;;;35.60;25.75;;;9.90;99.90;;;;;;5035609;28;20484;-90
2023/04/17 07:55:47;;;;;;;39.53;26.08;;;10.00;99.90;;;;;;5021534;28;20450;-90
2023/04/17 07:58:13;;;;;;;35.03;25.38;;;10.10;99.90;;;;;;5035759;28;20075;-91
2023/04/17 08:00:42;;;;;;;35.40;24.75;;;10.20;99.90;;;;;;5019605;28;20305;-91
2023/04/17 08:03:08;;;;;;;34.55;25.52;;;10.20;99.90;;;;;;5022787;28;20230;-90
2023/04/17 08:05:33;;;;;;;34.28;23.90;;;10.30;99.90;;;;;;5018548;28;20099;-90
2023/04/17 08:07:59;;;;;;;38.78;24.63;;;10.60;99.90;;;;;;5033418;28;20045;-90
2023/04/17 08:10:27;;;;;;;34.13;24.45;;;10.60;99.90;;;;;;5037346;28;20041;-91
2023/04/17 08:12:53;;;;;;;30.83;23.00;;;10.70;99.90;;;;;;5021788;28;20045;-90
2023/04/17 08:15:18;;;;;;;31.60;22.75;;;10.90;99.90;;;;;;5020940;28;20048;-91
2023/04/17 08:17:48;;;;;;;32.92;22.90;;;11.00;99.90;;;;;;5020484;28;20036;-89
2023/04/17 08:20:16;;;;;;;33.80;23.75;;;11.00;99.90;;;;;;5020053;28;20186;-91
2023/04/17 08:22:44;;;;;;;31.25;22.83;;;11.00;99.90;;;;;;5035405;28;20044;-90
2023/04/17 08:25:11;;;;;;;31.67;21.55;;;11.00;99.90;;;;;;5035590;28;20130;-91
2023/04/17 08:27:41;;;;;;;29.27;21.52;;;11.00;99.90;;;;;;5038705;28;20041;-90
2023/04/17 08:30:10;;;;;;;31.02;23.00;;;11.10;99.90;;;;;;5020851;28;20488;-92
2023/04/17 08:32:44;;;;;;;29.38;21.88;;;11.30;99.90;;;;;;5024190;28;20051;-90
2023/04/17 08:35:11;;;;;;;32.47;23.10;;;11.00;99.90;;;;;;5042261;28;20071;-91
2023/04/17 08:37:41;;;;;;;28.48;20.85;;;11.30;99.90;;;;;;5041293;28;20044;-93
2023/04/17 08:40:12;;;;;;;28.55;21.85;;;11.00;99.90;;;;;;5020023;28;20040;-91
2023/04/17 08:42:40;;;;;;;27.27;21.08;;;11.20;99.90;;;;;;5021931;28;20056;-90
2023/04/17 08:45:10;;;;;;;29.98;22.50;;;11.30;99.90;;;;;;5017795;28;20042;-91
2023/04/17 08:47:38;;;;;;;26.75;20.73;;;11.40;99.90;;;;;;5035816;28;20487;-91
2023/04/17 08:50:08;;;;;;;27.33;21.45;;;11.40;99.90;;;;;;5027329;28;20029;-91
2023/04/17 08:52:47;;;;;;;26.10;19.67;;;11.60;99.90;;;;;;5037010;28;20047;-91
2023/04/17 08:55:15;;;;;;;28.02;21.80;;;11.40;99.90;;;;;;5042389;28;20047;-91
2023/04/17 08:58:03;;;;;;;26.10;20.95;;;11.90;99.90;;;;;;5021849;28;20044;-92
2023/04/17 09:00:34;;;;;;;25.55;20.70;;;11.90;99.90;;;;;;5025782;28;20071;-91
2023/04/17 09:03:09;;;;;;;26.40;21.45;;;12.10;99.90;;;;;;5020928;28;20504;-91
2023/04/17 09:05:36;;;;;;;;;;;12.10;99.90;;;;;;5019809;28;20056;-91
2023/04/17 09:08:28;;;;;;;25.27;19.80;;;12.30;99.90;;;;;;5042058;28;19936;-90
2023/04/17 09:10:54;;;;;;;28.23;20.63;;;12.70;99.90;;;;;;5036659;28;20033;-91
2023/04/17 09:13:24;;;;;;;23.88;19.98;;;12.50;99.90;;;;;;5020573;28;20130;-90
2023/04/17 09:16:14;;;;;;;25.02;19.77;;;12.40;99.90;;;;;;5036749;28;20484;-91
2023/04/17 09:18:45;;;;;;;25.40;19.88;;;12.60;99.90;;;;;;5019421;28;20043;-91
2023/04/17 09:21:15;;;;;;;24.73;19.30;;;12.80;99.90;;;;;;5017967;28;20091;-91
2023/04/17 09:23:48;;;;;;;24.27;18.17;;;12.70;99.90;;;;;;5022422;28;20091;-90
2023/04/17 09:26:25;;;;;;;24.00;18.63;;;12.80;99.90;;;;;;5039842;28;20119;-90
2023/04/17 09:29:15;;;;;;;24.35;18.60;;;12.90;99.90;;;;;;5052430;28;20032;-90
2023/04/17 09:31:41;;;;;;;24.17;18.55;;;13.10;99.90;;;;;;5039779;28;20048;-91
2023/04/17 09:34:12;;;;;;;22.77;17.85;;;13.30;99.90;;;;;;5021365;28;20040;-90
2023/04/17 09:36:40;;;;;;;20.75;17.50;;;13.50;99.90;;;;;;5020712;28;20416;-91
2023/04/17 09:39:22;;;;;;;20.23;17.40;;;13.50;99.90;;;;;;5038175;28;20041;-91
2023/04/17 09:41:48;;;;;;;21.50;17.17;;;13.90;99.90;;;;;;5037297;28;20268;-91
2023/04/17 09:44:25;;;;;;;24.13;18.73;;;13.70;99.90;;;;;;5020932;28;20053;-91
2023/04/17 09:46:52;;;;;;;20.23;16.92;;;14.00;99.90;;;;;;5031186;28;20049;-93
2023/04/17 09:49:39;;;;;;;21.35;17.60;;;13.60;99.90;;;;;;5016786;28;20080;-90
2023/04/17 09:52:05;;;;;;;20.17;16.73;;;14.30;99.90;;;;;;5017627;28;20033;-91
2023/04/17 09:54:36;;;;;;;21.20;17.17;;;13.90;99.90;;;;;;5018206;28;20045;-92
2023/04/17 09:57:03;;;;;;;18.58;16.00;;;14.50;99.90;;;;;;5019286;28;20053;-91
2023/04/17 09:59:30;;;;;;;18.42;15.95;;;14.30;99.90;;;;;;5020855;28;20040;-89
2023/04/17 10:01:56;;;;;;;22.75;16.55;;;14.50;99.90;;;;;;5016881;28;20040;-92
2023/04/17 10:04:22;;;;;;;18.13;15.70;;;14.70;99.90;;;;;;5019766;28;20078;-90
2023/04/17 10:06:49;;;;;;;21.05;16.08;;;15.00;99.90;;;;;;5037177;28;20045;-91
2023/04/17 10:09:14;;;;;;;19.45;15.27;;;15.00;99.90;;;;;;5015361;28;20033;-90
2023/04/17 10:11:45;;;;;;;21.10;15.63;;;15.10;99.90;;;;;;5020464;28;20244;-90
2023/04/17 10:14:26;;;;;;;16.80;14.18;;;15.80;99.90;;;;;;5033143;28;20120;-90
2023/04/17 10:16:53;;;;;;;17.67;14.93;;;16.30;99.90;;;;;;5037817;28;20049;-91
2023/04/17 10:19:32;;;;;;;16.67;13.75;;;15.50;99.90;;;;;;5021992;28;20284;-90
2023/04/17 10:22:19;;;;;;;20.33;15.25;;;15.40;99.90;;;;;;5017127;28;20579;-92
2023/04/17 10:25:08;;;;;;;18.80;14.77;;;14.90;99.90;;;;;;5015685;28;20041;-90
2023/04/17 10:27:35;;;;;;;19.13;14.57;;;15.70;99.90;;;;;;5018810;28;20056;-91
2023/04/17 10:30:11;;;;;;;18.83;14.52;;;16.10;99.90;;;;;;5017782;28;20041;-90
2023/04/17 10:32:39;;;;;;;19.55;14.32;;;15.00;99.90;;;;;;5034490;28;20033;-90
2023/04/17 10:35:16;;;;;;;19.27;14.50;;;15.70;99.90;;;;;;5019116;28;20041;-90
2023/04/17 10:37:51;;;;;;;18.02;15.82;;;16.10;99.90;;;;;;5016385;28;20436;-90
2023/04/17 10:40:45;;;;;;;23.88;15.55;;;15.10;99.90;;;;;;5017334;28;20047;-91
2023/04/17 10:43:25;;;;;;;19.15;15.80;;;14.10;99.90;;;;;;5021164;28;20049;-91
2023/04/17 10:46:11;;;;;;;22.95;16.02;;;14.40;99.90;;;;;;5030597;28;20636;-90
2023/04/17 10:48:49;;;;;;;20.35;16.35;;;14.40;99.90;;;;;;5039450;28;20102;-90
2023/04/17 10:51:25;;;;;;;19.70;15.88;;;14.30;99.90;;;;;;5019079;28;20044;-90
2023/04/17 10:53:58;;;;;;;18.33;15.15;;;14.40;99.90;;;;;;5036048;28;20037;-89
2023/04/17 10:56:31;;;;;;;20.10;15.48;;;15.00;99.90;;;;;;5022473;28;20072;-90
2023/04/17 10:58:58;;;;;;;20.13;15.38;;;15.10;99.90;;;;;;5018830;28;20140;-90
2023/04/17 11:01:51;;;;;;;19.17;15.20;;;15.10;99.90;;;;;;5034552;28;20170;-91
2023/04/17 11:04:22;;;;;;;20.10;15.30;;;15.30;99.90;;;;;;5020571;28;20534;-90
2023/04/17 11:06:49;;;;;;;19.63;15.80;;;15.40;99.90;;;;;;5020515;28;20033;-91
2023/04/17 11:09:18;;;;;;;20.50;16.65;;;15.40;99.90;;;;;;5020937;28;20064;-90
2023/04/17 11:11:44;;;;;;;20.10;15.10;;;15.10;99.90;;;;;;5018414;28;20116;-91
2023/04/17 11:14:15;;;;;;;20.42;15.63;;;14.70;99.90;;;;;;5018121;28;20171;-91
2023/04/17 11:16:43;;;;;;;18.58;15.57;;;14.60;99.90;;;;;;5016972;28;20033;-91
2023/04/17 11:19:10;;;;;;;20.20;14.73;;;14.40;99.90;;;;;;5038348;28;20411;-90
2023/04/17 11:21:43;;;;;;;23.45;16.08;;;14.40;99.90;;;;;;5026994;28;20052;-91
2023/04/17 11:24:09;;;;;;;21.27;15.80;;;14.20;99.90;;;;;;5033703;28;20037;-91
2023/04/17 11:26:45;;;;;;;22.48;16.63;;;14.40;99.90;;;;;;5040286;28;20111;-91
2023/04/17 11:29:18;;;;;;;20.88;16.17;;;14.80;99.90;;;;;;5038164;28;20193;-90
2023/04/17 11:31:45;;;;;;;17.20;13.90;;;15.40;99.90;;;;;;5023093;28;20048;-90
2023/04/17 11:34:12;;;;;;;17.42;14.65;;;16.00;99.90;;;;;;5022783;28;20107;-91
2023/04/17 11:36:37;;;;;;;17.95;15.50;;;16.40;99.90;;;;;;5021892;28;20053;-93
2023/04/17 11:39:03;;;;;;;19.95;15.70;;;16.10;99.90;;;;;;5036664;28;20086;-90
2023/04/17 11:41:39;;;;;;;17.98;15.05;;;16.30;99.90;;;;;;5021353;28;20092;-91
2023/04/17 11:44:11;;;;;;;18.70;15.77;;;15.60;99.90;;;;;;5021263;28;20041;-91
2023/04/17 11:46:37;;;;;;;19.75;16.65;;;16.60;99.90;;;;;;5036443;28;20075;-91
2023/04/17 11:49:04;;;;;;;18.75;14.93;;;15.80;99.90;;;;;;5024728;28;20052;-90
2023/04/17 11:51:30;;;;;;;19.27;14.88;;;16.60;99.90;;;;;;5019113;28;20047;-91
2023/04/17 11:53:56;;;;;;;18.50;15.35;;;15.50;99.90;;;;;;5023617;28;20105;-91
2023/04/17 11:56:27;;;;;;;20.27;14.88;;;15.80;99.90;;;;;;5022179;28;20037;-91
2023/04/17 11:59:02;;;;;;;16.92;14.95;;;15.80;99.90;;;;;;5040183;28;20087;-91
2023/04/17 12:01:31;;;;;;;18.45;14.75;;;16.20;99.90;;;;;;5020952;28;20043;-91
2023/04/17 12:03:57;;;;;;;16.50;13.70;;;16.80;99.90;;;;;;5018178;28;20315;-91
2023/04/17 12:06:34;;;;;;;18.10;15.32;;;17.30;99.90;;;;;;5019392;28;20496;-91
2023/04/17 12:08:59;;;;;;;17.33;13.77;;;16.30;99.90;;;;;;5040016;28;20060;-91
2023/04/17 12:11:29;;;;;;;15.60;13.88;;;17.00;99.90;;;;;;5037330;28;20115;-89
2023/04/17 12:13:56;;;;;;;17.35;13.52;;;17.70;99.90;;;;;;5039837;28;20507;-90
2023/04/17 12:16:24;;;;;;;20.38;14.73;;;18.00;99.90;;;;;;5019161;28;20061;-91
2023/04/17 12:18:50;;;;;;;16.60;14.30;;;17.00;99.90;;;;;;5033471;28;20083;-89
2023/04/17 12:21:16;;;;;;;18.77;14.85;;;17.70;99.90;;;;;;5018850;28;20444;-89
2023/04/17 12:23:42;;;;;;;21.25;14.95;;;17.50;99.90;;;;;;5019498;28;20225;-91
2023/04/17 12:26:08;;;;;;;16.77;14.38;;;16.40;99.90;;;;;;5015858;28;20076;-91
2023/04/17 12:28:34;;;;;;;22.05;14.88;;;16.40;99.90;;;;;;5023519;28;20500;-90
2023/04/17 12:31:00;;;;;;;16.42;14.40;;;16.20;99.90;;;;;;5019707;28;20057;-90
2023/04/17 12:33:26;;;;;;;17.45;15.60;;;16.10;99.90;;;;;;5018203;28;20104;-91
2023/04/17 12:35:51;;;;;;;18.58;15.50;;;16.30;99.90;;;;;;5022340;28;20040;-91
2023/04/17 12:38:17;;;;;;;17.55;15.27;;;15.80;99.90;;;;;;5019343;28;20037;-89